Time;durP1;ratioP1;P1;durP2;ratioP2;P2;SDS_P1;SDS_P2;PMS_P1;PMS_P2;Temp;Humidity;BMP_temperature;BMP_pressure;BME280_temperature;BME280_humidity;BME280_pressure;Samples;Min_cycle;Max_cycle;Signal;HPM_P1;HPM_P2
2022/05/15 00:01:50;;;;;;;15.15;3.78;;;;;;;-142.75;100.00;77684.59;5029781;28;20045;-70
2022/05/15 00:04:15;;;;;;;12.07;3.22;;;;;;;-142.75;100.00;77686.56;5029074;28;20487;-70
2022/05/15 00:06:41;;;;;;;11.85;3.53;;;;;;;-142.75;100.00;77690.50;5032055;28;20072;-71
2022/05/15 00:09:06;;;;;;;20.92;4.82;;;;;;;-142.75;100.00;77696.41;5032841;28;20022;-70
2022/05/15 00:11:32;;;;;;;13.85;3.63;;;;;;;-142.75;100.00;77702.31;5033314;28;20485;-70
2022/05/15 00:13:57;;;;;;;18.58;4.15;;;;;;;-142.75;100.00;77704.28;5031641;28;20390;-70
2022/05/15 00:16:23;;;;;;;13.05;3.95;;;;;;;-142.75;100.00;77700.34;5033151;28;20025;-70
2022/05/15 00:18:50;;;;;;;;;;;;;;;-142.75;100.00;77708.22;5033261;28;20100;-71
2022/05/15 00:21:16;;;;;;;9.25;2.95;;;;;;;-142.75;100.00;77714.13;5031626;28;20391;-71
2022/05/15 00:23:42;;;;;;;;;;;;;;;-142.75;100.00;77708.22;5033845;28;20108;-70
2022/05/15 00:26:07;;;;;;;9.65;3.13;;;;;;;-142.75;100.00;77708.22;5031663;28;19995;-71
2022/05/15 00:28:32;;;;;;;17.60;4.65;;;;;;;-142.75;100.00;77700.34;5032567;28;20053;-71
2022/05/15 00:30:57;;;;;;;;;;;;;;;-142.75;100.00;77702.31;5029655;28;20087;-70
2022/05/15 00:33:23;;;;;;;13.25;3.58;;;;;;;-142.75;100.00;77702.31;5032814;28;19913;-71
2022/05/15 00:35:48;;;;;;;10.32;3.58;;;;;;;-142.75;100.00;77700.34;5032627;28;20033;-71
2022/05/15 00:38:14;;;;;;;;;;;;;;;-142.75;100.00;77708.22;5032887;28;20099;-71
2022/05/15 00:40:42;;;;;;;21.30;4.63;;;;;;;-142.75;100.00;77708.22;5032760;28;19967;-71
2022/05/15 00:43:34;;;;;;;13.95;3.92;;;;;;;-142.75;100.00;77706.25;5032554;28;20053;-70
2022/05/15 00:45:59;;;;;;;12.27;3.92;;;;;;;-142.75;100.00;77704.28;5032622;28;20546;-71
2022/05/15 00:48:25;;;;;;;14.10;3.63;;;;;;;-142.75;100.00;77718.06;5032215;28;20039;-70
2022/05/15 00:50:51;;;;;;;17.58;4.82;;;;;;;-142.75;100.00;77723.97;5030966;28;20452;-71
2022/05/15 00:53:17;;;;;;;;;;;;;;;-142.75;100.00;77723.97;5033333;28;20053;-71
2022/05/15 00:55:46;;;;;;;17.30;4.32;;;;;;;-142.75;100.00;77729.88;5032324;28;19913;-70
2022/05/15 00:58:31;;;;;;;10.77;3.45;;;;;;;-142.75;100.00;77741.72;5030774;28;20025;-70
2022/05/15 01:00:57;;;;;;;14.00;3.72;;;;;;;-142.75;100.00;77735.81;5032634;28;20026;-71
2022/05/15 01:03:23;;;;;;;15.27;4.88;;;;;;;-142.75;100.00;77739.75;5030763;28;20034;-72
2022/05/15 01:05:51;;;;;;;14.75;3.80;;;;;;;-142.75;100.00;77739.75;5030920;28;20026;-71
2022/05/15 01:08:17;;;;;;;15.20;4.28;;;;;;;-142.75;100.00;77749.59;5030402;28;20067;-71
2022/05/15 01:10:46;;;;;;;12.77;3.75;;;;;;;-142.75;100.00;77749.59;5030739;28;20026;-70
2022/05/15 01:13:13;;;;;;;15.25;4.25;;;;;;;-142.75;100.00;77751.56;5032010;28;20025;-71
2022/05/15 01:15:39;;;;;;;17.70;4.45;;;;;;;-142.75;100.00;77749.59;5031831;28;20387;-70
2022/05/15 01:18:05;;;;;;;14.70;4.82;;;;;;;-142.75;100.00;77751.56;5030283;28;20029;-70
2022/05/15 01:20:31;;;;;;;;;;;;;;;-142.75;100.00;77751.56;5032469;28;20056;-71
2022/05/15 01:22:58;;;;;;;14.73;3.85;;;;;;;-142.75;100.00;77751.56;5032257;28;19948;-71
2022/05/15 01:25:32;;;;;;;13.82;4.47;;;;;;;-142.75;100.00;77747.63;5031943;28;20040;-71
2022/05/15 01:28:06;;;;;;;18.83;4.80;;;;;;;-142.75;100.00;77747.63;5031609;28;20075;-71
2022/05/15 01:30:34;;;;;;;11.48;3.85;;;;;;;-142.75;100.00;77743.69;5032435;28;20466;-71
2022/05/15 01:33:00;;;;;;;12.05;3.95;;;;;;;-142.75;100.00;77739.75;5030330;28;20518;-70
2022/05/15 01:35:25;;;;;;;12.85;3.85;;;;;;;-142.75;100.00;77741.72;5031561;28;20029;-70
2022/05/15 01:37:51;;;;;;;11.60;3.97;;;;;;;-142.75;100.00;77739.75;5031417;28;20029;-70
2022/05/15 01:40:17;;;;;;;17.08;4.35;;;;;;;-142.75;100.00;77741.72;5030082;28;20033;-70
2022/05/15 01:42:43;;;;;;;17.10;4.72;;;;;;;-142.75;100.00;77739.75;5031572;28;20048;-71
2022/05/15 01:45:09;;;;;;;;;;;;;;;-142.75;100.00;77741.72;5031784;28;20025;-70
2022/05/15 01:47:34;;;;;;;13.40;4.13;;;;;;;-142.75;100.00;77749.59;5031287;28;19925;-70
2022/05/15 01:50:00;;;;;;;17.08;4.78;;;;;;;-142.75;100.00;77747.63;5031275;28;20036;-68
2022/05/15 01:52:25;;;;;;;;;;;;;;;-142.75;100.00;77747.63;5028648;28;20033;-70
2022/05/15 01:54:51;;;;;;;15.98;4.43;;;;;;;-142.75;100.00;77741.72;5031669;28;20002;-70
2022/05/15 01:57:16;;;;;;;;;;;;;;;-142.75;100.00;77743.69;5031372;28;20395;-70
2022/05/15 01:59:41;;;;;;;14.68;3.70;;;;;;;-142.75;100.00;77751.56;5030923;28;19927;-70
2022/05/15 02:02:07;;;;;;;15.02;4.07;;;;;;;-142.75;100.00;77755.50;5031167;28;20368;-71
2022/05/15 02:04:33;;;;;;;13.82;3.95;;;;;;;-142.75;100.00;77757.47;5031078;28;20025;-70
2022/05/15 02:06:59;;;;;;;12.25;4.10;;;;;;;-142.75;100.00;77757.47;5030940;28;20033;-70
2022/05/15 02:09:24;;;;;;;12.88;3.47;;;;;;;-142.75;100.00;77769.28;5030759;28;20044;-70
2022/05/15 02:11:49;;;;;;;10.93;3.95;;;;;;;-142.75;100.00;77763.38;5030933;28;20072;-71
2022/05/15 02:14:15;;;;;;;16.35;4.65;;;;;;;-142.75;100.00;77765.34;5030839;28;20124;-70
2022/05/15 02:16:40;;;;;;;;;;;;;;;-142.75;100.00;77771.25;5028607;28;20402;-70
2022/05/15 02:19:06;;;;;;;19.08;4.65;;;;;;;-142.75;100.00;77779.13;5030598;28;19916;-70
2022/05/15 02:21:32;;;;;;;15.73;3.67;;;;;;;-142.75;100.00;77783.06;5030869;28;20025;-70
2022/05/15 02:23:57;;;;;;;17.50;4.65;;;;;;;-142.75;100.00;77794.88;5030979;28;20052;-70
2022/05/15 02:26:23;;;;;;;16.73;4.78;;;;;;;-142.75;100.00;77796.84;5030732;28;20025;-70
2022/05/15 02:28:49;;;;;;;13.98;4.22;;;;;;;-142.75;100.00;77790.94;5028460;28;20025;-71
2022/05/15 02:31:14;;;;;;;22.33;4.43;;;;;;;-142.75;100.00;77787.00;5030776;28;20495;-71
2022/05/15 02:33:39;;;;;;;19.83;4.35;;;;;;;-142.75;100.00;77781.09;5029076;28;20025;-70
2022/05/15 02:36:05;;;;;;;13.68;3.88;;;;;;;-142.75;100.00;77796.84;5029293;28;20160;-70
2022/05/15 02:38:31;;;;;;;18.50;5.03;;;;;;;-142.75;100.00;77790.94;5030245;28;20036;-71
2022/05/15 02:40:56;;;;;;;19.05;4.93;;;;;;;-142.75;100.00;77790.94;5030221;28;20017;-69
2022/05/15 02:43:21;;;;;;;17.25;4.57;;;;;;;-142.75;100.00;77788.97;5030326;28;20037;-70
2022/05/15 02:45:47;;;;;;;12.55;4.55;;;;;;;-142.75;100.00;77806.69;5030292;28;20049;-71
2022/05/15 02:51:05;;;;;;;18.77;4.35;;;;;;;-142.75;100.00;77812.59;5030328;28;20102;-71
2022/05/15 02:53:36;;;;;;;25.00;5.03;;;;;;;-142.75;100.00;77804.72;5030453;28;20032;-71
2022/05/15 02:56:06;;;;;;;18.88;4.18;;;;;;;-142.75;100.00;77796.84;5030163;28;20025;-71
2022/05/15 02:58:31;;;;;;;16.63;3.78;;;;;;;-142.75;100.00;77794.88;5029802;28;20021;-71
2022/05/15 03:00:57;;;;;;;16.77;4.25;;;;;;;-142.75;100.00;77794.88;5030606;28;20375;-70
2022/05/15 03:03:26;;;;;;;16.23;3.97;;;;;;;-142.75;100.00;77790.94;5029893;28;20037;-70
2022/05/15 03:05:52;;;;;;;17.25;4.28;;;;;;;-142.75;100.00;77790.94;5029899;28;20072;-70
2022/05/15 03:08:17;;;;;;;17.92;4.65;;;;;;;-142.75;100.00;77785.03;5028101;28;20048;-70
2022/05/15 03:10:42;;;;;;;13.52;4.35;;;;;;;-142.75;100.00;77794.88;5029955;28;20151;-71
2022/05/15 03:13:08;;;;;;;;;;;;;;;-142.75;100.00;77798.81;5029010;28;20032;-70
2022/05/15 03:15:33;;;;;;;18.13;3.78;;;;;;;-142.75;100.00;77802.75;5029886;28;19913;-70
2022/05/15 03:17:58;;;;;;;14.93;4.40;;;;;;;-142.75;100.00;77806.69;5029345;28;20112;-70
2022/05/15 03:20:27;;;;;;;14.00;4.50;;;;;;;-142.75;100.00;77806.69;5029919;28;20037;-70
2022/05/15 03:22:55;;;;;;;18.25;4.82;;;;;;;-142.75;100.00;77812.59;5029746;28;20053;-71
2022/05/15 03:25:21;;;;;;;17.08;4.38;;;;;;;-142.75;100.00;77816.53;5029902;28;20033;-70
2022/05/15 03:27:46;;;;;;;24.15;4.72;;;;;;;-142.75;100.00;77814.56;5029500;28;20552;-70
2022/05/15 03:30:12;;;;;;;12.98;4.57;;;;;;;-142.75;100.00;77814.56;5029658;28;20068;-70
2022/05/15 03:32:37;;;;;;;;;;;;;;;-142.75;100.00;77814.56;5030216;28;20111;-71
2022/05/15 03:35:05;;;;;;;13.65;4.00;;;;;;;-142.75;100.00;77814.56;5028102;28;19952;-70
2022/05/15 03:37:31;;;;;;;18.02;4.10;;;;;;;-142.75;100.00;77810.63;5029522;28;20080;-70
2022/05/15 03:39:56;;;;;;;12.23;3.67;;;;;;;-142.75;100.00;77822.44;5027096;28;20495;-70
2022/05/15 03:42:22;;;;;;;14.73;4.28;;;;;;;-142.75;100.00;77818.50;5028192;28;20030;-71
2022/05/15 03:44:47;;;;;;;14.77;4.35;;;;;;;-142.75;100.00;77814.56;5029425;28;20022;-70
2022/05/15 03:47:12;;;;;;;17.83;4.10;;;;;;;-142.75;100.00;77812.59;5029279;28;20502;-71
2022/05/15 03:49:38;;;;;;;8.45;3.97;;;;;;;-142.75;100.00;77822.44;5029230;28;20022;-71
2022/05/15 03:52:03;;;;;;;15.23;4.40;;;;;;;-142.75;100.00;77820.47;5029439;28;20064;-71
2022/05/15 03:54:29;;;;;;;12.70;4.15;;;;;;;-142.75;100.00;77818.50;5028505;28;20036;-70
2022/05/15 03:56:54;;;;;;;18.23;4.10;;;;;;;-142.75;100.00;77824.41;5029378;28;20032;-69
2022/05/15 03:59:23;;;;;;;14.93;3.65;;;;;;;-142.75;100.00;77838.19;5029104;28;20029;-70
2022/05/15 04:01:49;;;;;;;14.63;4.55;;;;;;;-142.75;100.00;77834.25;5028242;28;20032;-70
2022/05/15 04:04:14;;;;;;;;;;;;;;;-142.75;100.00;77822.44;5029612;28;20044;-70
2022/05/15 04:06:40;;;;;;;15.65;4.72;;;;;;;-142.75;100.00;77830.31;5029231;28;20398;-71
2022/05/15 04:09:05;;;;;;;20.17;4.28;;;;;;;-142.75;100.00;77826.38;5027529;28;20025;-71
2022/05/15 04:11:30;;;;;;;14.18;3.88;;;;;;;-142.75;100.00;77826.38;5029228;28;20029;-71
2022/05/15 04:13:56;;;;;;;13.27;4.00;;;;;;;-142.75;100.00;77826.38;5029114;28;20013;-70
2022/05/15 04:16:21;;;;;;;18.55;5.38;;;;;;;-142.75;100.00;77828.34;5029272;28;20487;-70
2022/05/15 04:18:46;;;;;;;16.08;4.18;;;;;;;-142.75;100.00;77822.44;5028851;28;20104;-71
2022/05/15 04:21:12;;;;;;;17.83;4.28;;;;;;;-142.75;100.00;77822.44;5027812;28;20040;-70
2022/05/15 04:23:37;;;;;;;13.48;4.05;;;;;;;-142.75;100.00;77830.31;5029439;28;20025;-72
2022/05/15 04:26:03;;;;;;;16.58;4.68;;;;;;;-142.75;100.00;77824.41;5029110;28;20041;-70
2022/05/15 04:28:29;;;;;;;18.67;5.05;;;;;;;-142.75;100.00;77822.44;5028693;28;20053;-71
2022/05/15 04:30:54;;;;;;;22.77;4.57;;;;;;;-142.75;100.00;77826.38;5029176;28;20487;-70
2022/05/15 04:33:19;;;;;;;18.98;4.45;;;;;;;-142.75;100.00;77822.44;5029213;28;20087;-71
2022/05/15 04:35:45;;;;;;;17.30;4.13;;;;;;;-142.75;100.00;77816.53;5028890;28;20672;-71
2022/05/15 04:38:10;;;;;;;;;;;;;;;-142.75;100.00;77824.41;5029072;28;20479;-71
2022/05/15 04:40:36;;;;;;;10.57;3.42;;;;;;;-142.75;100.00;77818.50;5028968;28;20130;-70
2022/05/15 04:43:02;;;;;;;12.90;4.78;;;;;;;-142.75;100.00;77814.56;5029085;28;20021;-70
2022/05/15 04:45:28;;;;;;;;;;;;;;;-142.75;100.00;77816.53;5028044;28;20067;-70
2022/05/15 04:47:53;;;;;;;20.73;4.40;;;;;;;-142.75;100.00;77802.75;5028428;28;19975;-70
2022/05/15 04:50:19;;;;;;;19.02;4.25;;;;;;;-142.75;100.00;77792.91;5027426;28;20033;-71
2022/05/15 04:52:45;;;;;;;;;;;;;;;-142.75;100.00;77783.06;5031910;28;20591;-71
2022/05/15 04:55:11;;;;;;;21.75;5.03;;;;;;;-142.75;100.00;77781.09;5032870;28;20006;-71
2022/05/15 04:57:37;;;;;;;17.10;3.97;;;;;;;-142.75;100.00;77769.28;5029796;28;20062;-71
2022/05/15 05:00:09;;;;;;;15.25;4.53;;;;;;;-142.75;100.00;77765.34;5032113;28;20029;-71
2022/05/15 05:02:35;;;;;;;15.07;4.15;;;;;;;-142.75;100.00;77747.63;5032517;28;20052;-70
2022/05/15 05:05:00;;;;;;;17.95;3.83;;;;;;;-142.75;100.00;77735.81;5032125;28;20102;-70
2022/05/15 05:07:27;;;;;;;12.02;3.70;;;;;;;-142.75;100.00;77725.97;5032021;28;20518;-71
2022/05/15 05:09:53;;;;;;;19.17;5.22;;;;;;;-142.75;100.00;77722.00;5031985;28;20040;-71
2022/05/15 05:12:18;;;;;;;17.83;3.85;;;;;;;-142.75;100.00;77710.19;5030925;28;20021;-71
2022/05/15 05:14:44;;;;;;;23.95;5.00;;;;;;;-142.75;100.00;77692.47;5031955;28;20180;-71
2022/05/15 05:17:09;;;;;;;18.52;4.70;;;;;;;-142.75;100.00;77676.72;5032043;28;20036;-71
2022/05/15 05:19:34;;;;;;;18.00;4.40;;;;;;;-142.75;100.00;77672.78;5031676;28;20021;-71
2022/05/15 05:21:59;;;;;;;19.40;5.00;;;;;;;-142.75;100.00;77643.25;5030677;28;20036;-71
2022/05/15 05:24:25;;;;;;;14.00;4.65;;;;;;;-142.75;100.00;77641.28;5029263;28;20475;-71
2022/05/15 05:26:50;;;;;;;;;;;;;;;-142.75;100.00;77619.63;5032322;28;20064;-70
2022/05/15 05:29:15;;;;;;;17.35;4.25;;;;;;;-142.75;100.00;77605.84;5031465;28;19917;-70
2022/05/15 05:31:41;;;;;;;15.27;4.38;;;;;;;-142.75;100.00;77594.03;5032016;28;20087;-71
2022/05/15 05:36:35;;;;;;;17.90;4.97;;;;;;;-142.75;100.00;77556.63;4973207;28;20054;-71
2022/05/15 05:39:00;;;;;;;15.05;4.63;;;;;;;-142.75;100.00;77529.06;4984540;28;20026;-71
2022/05/15 05:41:27;;;;;;;20.40;4.68;;;;;;;-142.75;100.00;77519.22;4990835;28;20058;-71
2022/05/15 05:43:52;;;;;;;15.13;3.70;;;;;;;-142.75;100.00;77495.59;4979417;28;20069;-72
2022/05/15 05:46:17;;;;;;;20.90;4.28;;;;;;;-142.75;100.00;77468.03;4968517;28;20050;-72
2022/05/15 05:48:45;;;;;;;20.15;4.55;;;;;;;-142.75;100.00;77454.25;4953055;28;20580;-70
2022/05/15 05:51:12;;;;;;;20.95;4.55;;;;;;;-142.75;100.00;77440.44;4971548;28;20034;-72
2022/05/15 05:53:38;;;;;;;17.92;4.40;;;;;;;-142.75;100.00;77428.63;4972798;28;20031;-72
2022/05/15 05:56:03;;;;;;;16.40;3.97;;;;;;;-142.75;100.00;77406.97;4972591;28;20030;-70
2022/05/15 05:58:29;;;;;;;15.75;4.50;;;;;;;-142.75;100.00;77399.09;4956990;28;20501;-71
2022/05/15 06:00:54;;;;;;;;;;;;;;;-142.75;100.00;77377.44;4953802;28;20371;-73
2022/05/15 06:06:03;;;;;;;21.20;4.68;;;;;;;-142.75;100.00;77340.03;4971114;28;20473;-76
2022/05/15 06:08:30;;;;;;;23.02;4.97;;;;;;;-142.75;100.00;77304.59;4954038;28;20122;-73
2022/05/15 06:10:55;;;;;;;13.88;4.38;;;;;;;-142.75;100.00;77290.81;4952978;28;20054;-73
2022/05/15 06:13:21;;;;;;;18.50;4.25;;;;;;;-142.75;100.00;77271.13;4952794;28;20063;-73
2022/05/15 06:15:46;;;;;;;;;;;;;;;-142.75;100.00;77263.25;4967838;28;20042;-70
2022/05/15 06:18:12;;;;;;;23.33;4.63;;;;;;;-142.75;100.00;77233.72;4952642;28;19922;-72
2022/05/15 06:20:37;;;;;;;19.48;4.57;;;;;;;-142.75;100.00;77231.75;4969376;28;20038;-74
2022/05/15 06:23:02;;;;;;;;;;;;;;;-142.75;100.00;77217.97;4967176;28;20039;-73
2022/05/15 06:25:28;;;;;;;18.45;3.83;;;;;;;-142.75;100.00;77200.25;4960259;28;19914;-73
2022/05/15 06:27:53;;;;;;;;;;;;;;;-142.75;100.00;77184.50;4972196;28;20026;-70
2022/05/15 06:30:19;;;;;;;20.67;4.88;;;;;;;-142.75;100.00;77172.69;4971836;28;20372;-73
2022/05/15 06:32:45;;;;;;;18.83;4.30;;;;;;;-142.75;100.00;77156.94;4971827;28;20031;-72
2022/05/15 06:35:11;;;;;;;;;;;;;;;-142.75;100.00;77141.19;4971979;28;20027;-73
2022/05/15 06:37:37;;;;;;;17.02;5.38;;;;;;;-142.75;100.00;77119.53;4970430;28;19960;-73
2022/05/15 06:40:03;;;;;;;;;;;;;;;-142.75;100.00;77109.69;4964146;28;20047;-71
2022/05/15 06:42:29;;;;;;;18.45;4.72;;;;;;;-142.75;100.00;77095.91;4970228;28;20004;-72
2022/05/15 06:44:55;;;;;;;24.88;4.80;;;;;;;-142.75;100.00;77070.31;4971483;28;20026;-72
2022/05/15 06:47:20;;;;;;;;;;;;;;;-142.75;100.00;77052.59;4971786;28;20045;-73
2022/05/15 06:49:46;;;;;;;26.08;5.68;;;;;;;-142.75;100.00;77048.66;4971004;28;19914;-72
2022/05/15 06:52:11;;;;;;;;;;;;;;;-142.75;100.00;77027.00;4971910;28;20046;-73
2022/05/15 06:54:36;;;;;;;18.65;4.82;;;;;;;-142.75;100.00;77013.22;4970890;28;19921;-73
2022/05/15 06:59:45;;;;;;;22.73;5.15;;;;;;;-142.75;100.00;76985.66;4970170;28;19929;-74
2022/05/15 07:02:11;;;;;;;;;;;;;;;-142.75;100.00;76985.66;4971117;28;20408;-71
2022/05/15 07:04:36;;;;;;;19.40;5.18;;;;;;;-142.75;100.00;76964.00;4970409;28;20309;-72
2022/05/15 07:07:01;;;;;;;;;;;;;;;-142.75;100.00;76956.13;4970923;28;20480;-72
2022/05/15 07:09:27;;;;;;;20.95;4.47;;;;;;;-142.75;100.00;76954.16;4968379;28;20276;-74
2022/05/15 07:11:52;;;;;;;;;;;;;;;-142.75;100.00;76946.28;4970815;28;20085;-75
2022/05/15 07:14:18;;;;;;;17.83;4.78;;;;;;;-142.75;100.00;76928.56;4970064;28;19921;-73
2022/05/15 07:16:43;;;;;;;;;;;;;;;-142.75;100.00;76910.84;4964140;28;20034;-72
2022/05/15 07:19:08;;;;;;;18.13;4.93;;;;;;;-142.75;100.00;76895.09;4950691;28;20456;-75
2022/05/15 07:21:33;;;;;;;;;;;;;;;-142.75;100.00;76881.31;4969107;28;20030;-73
2022/05/15 07:23:59;;;;;;;19.25;5.10;;;;;;;-142.75;100.00;76877.38;4970377;28;20379;-73
2022/05/15 07:26:24;;;;;;;;;;;;;;;-142.75;100.00;76871.47;4968650;28;20029;-72
2022/05/15 07:28:51;;;;;;;15.98;4.95;;;;;;;-142.75;100.00;76853.75;4950745;28;20308;-73
2022/05/15 07:31:21;;;;;;;19.17;5.45;;;;;;;-142.75;100.00;76810.44;4950879;28;20388;-72
2022/05/15 07:33:49;;;;;;;19.63;5.22;;;;;;;-142.75;100.00;76780.94;4950633;28;20038;-72
2022/05/15 07:36:15;;;;;;;17.23;5.10;;;;;;;-142.75;100.00;76763.22;4950580;28;20027;-71
2022/05/15 07:38:40;;;;;;;22.85;5.45;;;;;;;-142.75;100.00;76725.81;4964990;28;20871;-71
2022/05/15 07:41:05;;;;;;;21.77;5.00;;;;;;;-142.75;100.00;76696.28;4950737;28;20035;-72
2022/05/15 07:43:31;;;;;;;20.25;5.63;;;;;;;-142.75;100.00;76662.81;4950576;28;20023;-73
2022/05/15 07:45:56;;;;;;;16.70;5.38;;;;;;;-142.75;100.00;76627.38;4965618;28;20034;-72
2022/05/15 07:48:21;;;;;;;19.00;5.35;;;;;;;-142.75;100.00;76621.47;4950153;28;20035;-73
2022/05/15 07:50:48;;;;;;;20.52;5.00;;;;;;;-142.75;100.00;76605.72;4965080;28;20114;-73
2022/05/15 07:53:13;;;;;;;17.38;5.28;;;;;;;-142.75;100.00;76580.13;4950274;28;20031;-74
2022/05/15 07:55:39;;;;;;;16.13;5.45;;;;;;;-142.75;100.00;76550.59;4951054;28;20048;-71
2022/05/15 07:58:05;;;;;;;16.40;5.32;;;;;;;-142.75;100.00;76544.69;4949920;28;20027;-72
2022/05/15 08:00:31;;;;;;;14.55;5.05;;;;;;;-142.75;100.00;76536.84;4950517;28;20397;-71
2022/05/15 08:03:05;;;;;;;22.20;5.50;;;;;;;-142.75;100.00;76519.13;4950662;28;20469;-71
2022/05/15 08:08:15;;;;;;;17.25;5.63;;;;;;;-142.75;100.00;76467.94;4949756;28;21453;-71
2022/05/15 08:10:43;;;;;;;22.42;6.07;;;;;;;-142.75;100.00;76487.63;4954811;28;20031;-71
2022/05/15 08:13:16;;;;;;;22.17;6.32;;;;;;;-142.75;100.00;76452.19;4980818;28;20481;-72
2022/05/15 08:15:42;;;;;;;17.23;5.30;;;;;;;-142.75;100.00;76428.56;4984474;28;20027;-72
2022/05/15 08:23:33;;;;;;;18.08;6.35;;;;;;;-142.75;100.00;76412.81;4968996;28;20469;-72
2022/05/15 08:23:47;;;;;;;16.58;5.90;;;;;;;-142.75;100.00;76361.63;4969284;28;20093;-72
2022/05/15 08:26:12;;;;;;;17.13;6.05;;;;;;;-142.75;100.00;76359.66;4950502;28;20022;-72
2022/05/15 08:28:38;;;;;;;27.50;6.80;;;;;;;-142.75;100.00;76349.81;4968616;28;20501;-70
2022/05/15 08:31:06;;;;;;;17.92;6.53;;;;;;;-142.75;100.00;76351.81;4954177;28;20034;-71
2022/05/15 08:33:33;;;;;;;16.67;5.50;;;;;;;-142.75;100.00;76314.41;4954141;28;20396;-71
2022/05/15 08:35:59;;;;;;;22.27;5.68;;;;;;;-142.75;100.00;76286.84;4958796;28;20026;-70
2022/05/15 08:38:24;;;;;;;13.60;5.78;;;;;;;-142.75;100.00;76263.22;4953400;28;20059;-72
2022/05/15 08:41:00;;;;;;;14.77;5.95;;;;;;;-142.75;100.00;76212.03;4961452;28;20031;-71
2022/05/15 08:43:41;;;;;;;17.52;6.60;;;;;;;-142.75;100.00;76227.78;4972934;28;20034;-72
2022/05/15 08:46:28;;;;;;;16.85;6.22;;;;;;;-142.75;100.00;76241.56;4965039;28;20031;-71
2022/05/15 08:49:06;;;;;;;17.83;5.80;;;;;;;-142.75;100.00;76210.06;4968118;28;20122;-72
2022/05/15 08:51:32;;;;;;;18.98;6.22;;;;;;;-142.75;100.00;76184.50;4972867;28;20579;-72
2022/05/15 08:54:02;;;;;;;18.98;5.97;;;;;;;-142.75;100.00;76200.25;4971223;28;20026;-72
2022/05/15 08:56:30;;;;;;;16.90;6.28;;;;;;;-142.75;100.00;76202.19;4958716;28;20073;-71
2022/05/15 08:58:58;;;;;;;18.65;6.65;;;;;;;-142.75;100.00;76168.75;4954351;28;20031;-72
2022/05/15 09:01:28;;;;;;;17.23;6.75;;;;;;;-142.75;100.00;76192.38;4966675;28;20165;-72
2022/05/15 09:03:54;;;;;;;18.27;6.20;;;;;;;-142.75;100.00;76198.28;4964738;28;20041;-71
2022/05/15 09:06:22;;;;;;;21.73;6.65;;;;;;;-142.75;100.00;76168.75;4963358;28;20544;-72
2022/05/15 09:09:38;;;;;;;22.25;6.88;;;;;;;-142.75;100.00;76117.56;4981258;28;20114;-71
2022/05/15 09:12:24;;;;;;;18.38;6.22;;;;;;;-142.75;95.28;76050.66;4957871;28;20540;-72
2022/05/15 09:15:08;;;;;;;19.15;6.07;;;;;;;-142.75;89.95;76052.63;4967085;28;20497;-72
2022/05/15 09:17:58;;;;;;;16.05;6.55;;;;;;;-142.75;87.10;76078.19;4972299;28;20393;-71
2022/05/15 09:20:23;;;;;;;21.17;6.47;;;;;;;-142.75;94.88;76082.13;4958624;28;20035;-73
2022/05/15 09:22:57;;;;;;;17.85;6.68;;;;;;;-142.75;93.93;76090.00;4961848;28;20039;-72
2022/05/15 09:25:24;;;;;;;14.23;6.47;;;;;;;-142.75;88.65;76103.78;4987426;28;20038;-72
2022/05/15 09:28:06;;;;;;;19.67;7.40;;;;;;;-142.75;86.41;76090.00;4972029;28;20073;-72
2022/05/15 09:30:33;;;;;;;15.57;7.00;;;;;;;-142.75;81.36;76109.69;4958392;28;20481;-72
2022/05/15 09:32:58;;;;;;;14.85;6.70;;;;;;;-142.75;82.63;76117.56;4961341;28;20468;-70
2022/05/15 09:35:30;;;;;;;18.40;6.50;;;;;;;-142.75;86.56;76082.13;4963232;28;20041;-71
2022/05/15 09:43:39;;;;;;;13.85;5.78;;;;;;;-142.75;87.11;76048.69;4966822;28;20190;-70
2022/05/15 09:46:18;;;;;;;18.33;6.97;;;;;;;-142.75;77.02;75987.66;4978810;28;20018;-70
2022/05/15 09:49:13;;;;;;;16.23;5.10;;;;;;;-142.75;68.13;75997.50;4967168;28;20052;-70
2022/05/15 09:51:49;;;;;;;15.93;6.35;;;;;;;-142.75;70.42;76038.84;4959382;28;20031;-71
2022/05/15 09:54:31;;;;;;;20.42;6.60;;;;;;;-142.75;74.59;76029.00;4962983;28;20089;-70
2022/05/15 09:57:27;;;;;;;15.68;6.35;;;;;;;-142.75;71.53;76036.88;4952516;28;20081;-70
2022/05/15 09:59:56;;;;;;;16.98;7.07;;;;;;;-142.75;71.83;76040.81;4951994;28;20024;-71
2022/05/15 10:02:37;;;;;;;15.68;6.07;;;;;;;-142.75;69.42;76058.53;4958581;28;20109;-70
2022/05/15 10:05:11;;;;;;;15.35;6.05;;;;;;;-142.75;70.49;76066.41;4971354;28;20022;-70
2022/05/15 10:07:45;;;;;;;14.77;5.28;;;;;;;-142.75;72.71;76038.84;4959832;28;20037;-70
2022/05/15 10:10:23;;;;;;;16.50;6.72;;;;;;;-142.75;68.60;76048.69;4966412;28;20039;-70
2022/05/15 10:13:18;;;;;;;13.63;5.97;;;;;;;-142.75;66.10;76040.81;4964709;28;20031;-70
2022/05/15 10:15:49;;;;;;;11.60;6.13;;;;;;;-142.75;67.15;76050.66;4971329;28;20043;-71
2022/05/15 10:18:20;;;;;;;12.48;5.40;;;;;;;-142.75;65.74;76042.78;4951678;28;20051;-72
2022/05/15 10:20:47;;;;;;;15.75;5.90;;;;;;;-142.75;66.01;76040.81;4970995;28;20026;-73
2022/05/15 10:23:20;;;;;;;14.80;6.25;;;;;;;-142.75;64.54;76030.97;4966477;28;20031;-73
2022/05/15 10:25:55;;;;;;;15.32;5.50;;;;;;;-142.75;66.88;76015.22;4952148;28;20031;-72
2022/05/15 10:28:38;;;;;;;13.55;6.00;;;;;;;-142.75;66.90;76007.34;4965106;28;20031;-71
2022/05/15 10:31:31;;;;;;;12.02;5.13;;;;;;;-142.75;64.66;76011.28;4966701;28;20027;-72
2022/05/15 10:34:00;;;;;;;16.08;6.00;;;;;;;-142.75;64.56;76005.38;4962857;28;20023;-72
2022/05/15 10:36:47;;;;;;;13.35;5.30;;;;;;;-142.75;64.00;75995.53;4967909;28;20059;-72
2022/05/15 10:39:12;;;;;;;15.95;5.38;;;;;;;-142.75;64.77;75973.88;4970437;28;20062;-76
2022/05/15 10:41:59;;;;;;;14.48;4.93;;;;;;;-142.75;64.38;75966.00;4962149;28;20061;-73
2022/05/15 10:44:30;;;;;;;;;;;;;;;-142.75;63.23;75952.25;4956158;28;20026;-73
2022/05/15 10:47:03;;;;;;;11.48;4.80;;;;;;;-142.75;65.58;75944.38;4952835;28;19918;-71
2022/05/15 10:50:08;;;;;;;15.18;5.30;;;;;;;-142.75;62.96;75928.63;4949914;28;20019;-72
2022/05/15 10:52:46;;;;;;;18.70;5.47;;;;;;;-142.75;60.38;75920.75;4937682;28;20038;-73
2022/05/15 10:58:36;;;;;;;13.73;5.05;;;;;;;-142.75;61.03;75920.75;4951524;28;20134;-71
2022/05/15 11:01:12;;;;;;;12.10;4.55;;;;;;;-142.75;60.56;75899.09;4951696;28;20031;-73
2022/05/15 11:03:40;;;;;;;16.52;4.63;;;;;;;-142.75;62.54;75885.31;4951962;28;20086;-72
2022/05/15 11:06:21;;;;;;;13.73;4.63;;;;;;;-142.75;59.13;75881.38;4951930;28;20049;-71
2022/05/15 11:08:49;;;;;;;9.77;4.32;;;;;;;-142.75;57.78;75885.31;4966762;28;20023;-72
2022/05/15 11:11:48;;;;;;;14.20;4.70;;;;;;;-142.75;59.21;75873.50;4967006;28;20449;-72
2022/05/15 11:14:41;;;;;;;11.25;3.58;;;;;;;-142.75;57.55;75842.03;4968929;28;20543;-73
2022/05/15 11:17:17;;;;;;;13.18;4.60;;;;;;;-142.75;55.12;75834.16;4970947;28;20034;-72
2022/05/15 11:19:45;;;;;;;11.80;4.00;;;;;;;-142.75;56.73;75851.88;4971324;28;20022;-71
2022/05/15 11:22:25;;;;;;;11.07;3.67;;;;;;;-142.75;56.71;75842.03;4970951;28;20022;-71
2022/05/15 11:25:06;;;;;;;11.50;4.10;;;;;;;-142.75;53.82;75826.28;4971496;28;20038;-73
2022/05/15 11:27:34;;;;;;;9.95;3.72;;;;;;;-142.75;55.07;75747.56;4971081;28;20027;-72
2022/05/15 11:30:03;;;;;;;12.18;5.18;;;;;;;-142.75;51.84;75755.44;4960478;28;20031;-73
2022/05/15 11:32:34;;;;;;;12.15;4.07;;;;;;;-142.75;55.89;75757.41;4951965;28;20442;-73
2022/05/15 11:35:00;;;;;;;13.52;4.03;;;;;;;-142.75;54.01;75723.94;4951804;28;20035;-73
2022/05/15 11:37:38;;;;;;;13.52;4.25;;;;;;;-142.75;55.54;75702.28;4954208;28;20109;-71
2022/05/15 11:40:12;;;;;;;14.68;3.92;;;;;;;-142.75;53.52;75725.91;4953393;28;20034;-73
2022/05/15 11:42:37;;;;;;;13.05;3.90;;;;;;;-142.75;53.28;75737.72;4969078;28;20298;-73
2022/05/15 11:45:28;;;;;;;14.18;3.95;;;;;;;-142.75;54.29;75753.47;4971183;28;20109;-72